Time;durP1;ratioP1;P1;durP2;ratioP2;P2;SDS_P1;SDS_P2;PMS_P1;PMS_P2;Temp;Humidity;BMP_temperature;BMP_pressure;BME280_temperature;BME280_humidity;BME280_pressure;Samples;Min_cycle;Max_cycle;Signal;HPM_P1;HPM_P2
2022/06/13 00:01:44;;;;;;;18.83;6.33;;;;;;;13.27;85.53;101889.28;5030995;28;20205;-73
2022/06/13 00:04:10;;;;;;;19.50;6.53;;;;;;;13.32;85.56;101896.31;5030476;28;20190;-73
2022/06/13 00:06:36;;;;;;;15.53;5.90;;;;;;;13.32;85.97;101905.72;4996418;28;20241;-73
2022/06/13 00:09:04;;;;;;;14.87;5.80;;;;;;;13.33;85.93;101904.88;5030398;28;20190;-73
2022/06/13 00:11:29;;;;;;;15.17;5.40;;;;;;;13.33;86.37;101903.19;5012513;28;20198;-73
2022/06/13 00:13:55;;;;;;;17.90;6.50;;;;;;;13.34;86.42;101907.50;5012827;28;20563;-73
2022/06/13 00:16:21;;;;;;;13.30;5.50;;;;;;;13.37;86.16;101904.13;5012344;28;20197;-73
2022/06/13 00:18:47;;;;;;;13.80;5.63;;;;;;;13.38;86.47;101905.84;5029932;28;20194;-73
2022/06/13 00:21:19;;;;;;;18.77;5.80;;;;;;;13.37;86.48;101907.59;5030479;28;20223;-73
2022/06/13 00:23:45;;;;;;;17.47;5.97;;;;;;;13.39;86.19;101908.47;5030468;28;20195;-73
2022/06/13 00:26:10;;;;;;;16.00;5.53;;;;;;;13.41;86.35;101893.97;5030209;28;20198;-73
2022/06/13 00:28:36;;;;;;;15.03;4.97;;;;;;;13.40;86.61;101893.91;5028772;28;20213;-73
2022/06/13 00:31:01;;;;;;;17.87;6.17;;;;;;;13.41;85.75;101898.22;5012399;28;20719;-73
2022/06/13 00:33:27;;;;;;;19.20;7.23;;;;;;;13.38;86.39;101891.31;5011826;28;20660;-73
2022/06/13 00:35:52;;;;;;;16.07;6.47;;;;;;;13.38;86.20;101890.41;5030067;28;20194;-73
2022/06/13 00:38:18;;;;;;;18.50;6.33;;;;;;;13.41;85.99;101886.25;5012074;28;20197;-73
2022/06/13 00:40:44;;;;;;;15.10;6.07;;;;;;;13.41;86.14;101877.66;5030162;28;20199;-73
2022/06/13 00:43:13;;;;;;;14.80;5.80;;;;;;;13.39;86.59;101889.63;5030031;28;20773;-73
2022/06/13 00:45:38;;;;;;;14.57;5.03;;;;;;;13.41;86.18;101881.09;5029526;28;20221;-73
2022/06/13 00:48:04;;;;;;;17.23;6.17;;;;;;;13.42;86.11;101881.94;5012291;28;20222;-73
2022/06/13 00:50:40;;;;;;;16.53;5.83;;;;;;;13.37;86.38;101870.69;5011551;28;20312;-73
2022/06/13 00:53:11;;;;;;;12.63;5.80;;;;;;;13.34;86.63;101871.47;5030202;28;20543;-73
2022/06/13 00:55:44;;;;;;;14.93;5.20;;;;;;;13.24;86.28;101869.50;5029752;28;20178;-73
2022/06/13 00:58:11;;;;;;;14.40;5.63;;;;;;;13.24;85.76;101871.19;5029766;28;20187;-73
2022/06/13 01:00:38;;;;;;;14.10;5.50;;;;;;;13.18;85.77;101871.06;5011620;28;20206;-73
2022/06/13 01:03:04;;;;;;;18.07;5.50;;;;;;;13.13;85.99;101875.22;5012192;28;20186;-73
2022/06/13 01:05:34;;;;;;;16.60;6.23;;;;;;;13.07;85.94;101875.06;5029994;28;20195;-73
2022/06/13 01:08:03;;;;;;;15.67;5.77;;;;;;;13.03;86.23;101884.38;4995146;28;20198;-73
2022/06/13 01:13:15;;;;;;;12.43;5.10;;;;;;;12.90;86.18;101878.03;5010218;28;20262;-73
2022/06/13 01:15:43;;;;;;;15.73;5.50;;;;;;;12.88;86.31;101882.25;5025299;28;20682;-73
2022/06/13 01:18:35;;;;;;;17.13;5.77;;;;;;;12.88;86.59;101884.84;5028317;28;20252;-73
2022/06/13 01:21:07;;;;;;;12.37;5.83;;;;;;;12.84;86.56;101884.69;4992300;28;20266;-73
2022/06/13 01:23:46;;;;;;;12.80;5.40;;;;;;;12.83;86.77;101888.09;5015397;28;20572;-73
2022/06/13 01:26:42;;;;;;;13.27;5.33;;;;;;;12.79;87.03;101892.31;5029219;28;20186;-72
2022/06/13 01:29:33;;;;;;;14.40;5.23;;;;;;;12.74;86.82;101887.84;5016399;28;20273;-73
2022/06/13 01:32:13;;;;;;;14.47;5.57;;;;;;;12.74;86.73;101885.28;5028925;28;20687;-73
2022/06/13 01:34:58;;;;;;;13.93;5.47;;;;;;;12.71;86.81;101888.63;5028611;28;20194;-73
2022/06/13 01:37:29;;;;;;;20.17;6.10;;;;;;;12.68;86.73;101882.56;5011587;28;20182;-73
2022/06/13 01:40:16;;;;;;;14.77;6.30;;;;;;;12.63;87.29;101887.56;5028388;28;20733;-73
2022/06/13 01:43:08;;;;;;;13.00;5.93;;;;;;;12.60;86.90;101882.34;5029031;28;20197;-73
2022/06/13 01:45:53;;;;;;;18.10;6.20;;;;;;;12.52;87.43;101882.94;5028742;28;20195;-73
2022/06/13 01:48:31;;;;;;;14.43;6.00;;;;;;;12.46;87.31;101883.66;5029030;28;20213;-73
2022/06/13 01:50:59;;;;;;;17.77;6.53;;;;;;;12.41;87.40;101882.66;5010332;28;20220;-73
2022/06/13 01:53:54;;;;;;;14.90;6.23;;;;;;;12.35;87.29;101879.03;5011688;28;20193;-73
2022/06/13 01:56:45;;;;;;;18.23;6.23;;;;;;;12.29;87.39;101882.28;5027715;28;20222;-73
2022/06/13 01:59:22;;;;;;;18.93;6.47;;;;;;;12.24;87.13;101865.88;4990879;28;20927;-72
2022/06/13 02:02:00;;;;;;;16.30;6.43;;;;;;;12.17;87.68;101876.78;4999913;28;20197;-73
2022/06/13 02:04:35;;;;;;;14.27;5.60;;;;;;;12.13;87.59;101872.38;5011615;28;20182;-73
2022/06/13 02:07:09;;;;;;;11.93;5.73;;;;;;;12.09;87.75;101862.00;5029165;28;20217;-73
2022/06/13 02:09:45;;;;;;;13.97;5.70;;;;;;;11.96;87.75;101865.91;5011122;28;20236;-73
2022/06/13 02:12:13;;;;;;;16.20;5.97;;;;;;;11.92;87.60;101873.44;5011486;28;20189;-73
2022/06/13 02:14:48;;;;;;;13.63;5.90;;;;;;;11.89;87.13;101870.81;5028736;28;20194;-73
2022/06/13 02:17:17;;;;;;;12.73;5.13;;;;;;;11.80;87.62;101865.41;5011102;28;20201;-73
2022/06/13 02:19:53;;;;;;;11.47;5.63;;;;;;;11.76;87.69;101861.84;5028164;28;20286;-73
2022/06/13 02:22:45;;;;;;;11.50;5.60;;;;;;;11.73;86.94;101854.06;5010984;28;20595;-73
2022/06/13 02:25:28;;;;;;;13.63;5.53;;;;;;;11.71;87.56;101855.69;5028362;28;20224;-73
2022/06/13 02:28:18;;;;;;;12.83;6.07;;;;;;;11.77;88.40;101865.28;5028662;28;20307;-73
2022/06/13 02:30:51;;;;;;;14.67;6.23;;;;;;;11.71;88.41;101863.41;5010413;28;20226;-72
2022/06/13 02:33:31;;;;;;;14.60;6.90;;;;;;;11.74;88.87;101867.75;5028607;28;20260;-73
2022/06/13 02:36:02;;;;;;;13.70;6.33;;;;;;;11.75;88.99;101864.38;5028027;28;20174;-73
2022/06/13 02:38:41;;;;;;;13.03;6.27;;;;;;;11.66;88.50;101864.09;5028568;28;20266;-73
2022/06/13 02:41:12;;;;;;;12.77;6.93;;;;;;;11.60;88.90;101866.44;5028056;28;20206;-73
2022/06/13 02:43:46;;;;;;;15.47;6.60;;;;;;;11.58;89.38;101861.25;5028423;28;20190;-73
2022/06/13 02:46:17;;;;;;;16.50;6.97;;;;;;;11.61;89.78;101863.94;5004901;28;20199;-73
2022/06/13 02:48:57;;;;;;;13.27;6.47;;;;;;;11.59;89.90;101872.38;5034492;28;20291;-73
2022/06/13 02:51:38;;;;;;;16.90;7.13;;;;;;;11.64;89.89;101873.41;5050310;28;20197;-73
2022/06/13 02:54:23;;;;;;;15.23;6.97;;;;;;;11.64;90.33;101873.41;5051668;28;20189;-73
2022/06/13 02:57:24;;;;;;;17.53;7.67;;;;;;;11.64;90.81;101878.56;5051809;28;20190;-73
2022/06/13 03:00:18;;;;;;;19.87;6.67;;;;;;;11.70;90.23;101879.63;5051167;28;20206;-73
2022/06/13 03:02:49;;;;;;;15.60;7.17;;;;;;;11.66;90.56;101870.09;5051677;28;20166;-73
2022/06/13 03:05:21;;;;;;;18.67;6.90;;;;;;;11.67;90.42;101864.16;5033612;28;20205;-73
2022/06/13 03:08:00;;;;;;;18.80;7.57;;;;;;;11.65;90.89;101867.47;5051456;28;20174;-73
2022/06/13 03:10:38;;;;;;;18.97;7.47;;;;;;;11.62;90.59;101860.53;5051074;28;20221;-73
2022/06/13 03:13:19;;;;;;;19.50;7.20;;;;;;;11.61;90.74;101863.94;5051621;28;20177;-73
2022/06/13 03:15:51;;;;;;;19.53;6.97;;;;;;;11.57;90.79;101853.50;5016599;28;20197;-73
2022/06/13 03:18:25;;;;;;;16.27;6.90;;;;;;;11.53;90.67;101855.09;5051453;28;20169;-73
2022/06/13 03:20:56;;;;;;;13.10;6.47;;;;;;;11.50;90.15;101844.75;5051026;28;20197;-73
2022/06/13 03:23:37;;;;;;;13.37;6.37;;;;;;;11.46;90.10;101842.03;5051626;28;20190;-73
2022/06/13 03:26:09;;;;;;;13.83;5.97;;;;;;;11.44;89.51;101836.88;5051044;28;20178;-73
2022/06/13 03:28:45;;;;;;;14.90;6.47;;;;;;;11.48;89.75;101835.28;5051168;28;20174;-73
2022/06/13 03:31:17;;;;;;;13.10;6.60;;;;;;;11.45;90.02;101840.28;5050775;28;20288;-73
2022/06/13 03:33:47;;;;;;;14.90;6.97;;;;;;;11.50;89.91;101833.59;5033480;28;20192;-73
2022/06/13 03:36:22;;;;;;;13.13;7.27;;;;;;;11.54;90.64;101835.44;5033760;28;20667;-73
2022/06/13 03:39:05;;;;;;;15.17;7.53;;;;;;;11.63;90.06;101841.78;5013567;28;20202;-73
2022/06/13 03:41:40;;;;;;;16.77;7.70;;;;;;;11.64;90.28;101842.63;5029958;28;20310;-73
2022/06/13 03:44:13;;;;;;;14.30;7.13;;;;;;;11.60;90.26;101848.50;5030939;28;20194;-73
2022/06/13 03:46:50;;;;;;;17.03;8.10;;;;;;;11.57;91.02;101856.94;5013412;28;20190;-73
2022/06/13 03:49:30;;;;;;;15.67;8.17;;;;;;;11.58;91.55;101860.38;5030766;28;20206;-73
2022/06/13 03:51:59;;;;;;;26.23;8.67;;;;;;;11.63;91.77;101869.13;5013712;28;20629;-73
2022/06/13 03:54:50;;;;;;;17.63;8.20;;;;;;;11.68;92.01;101870.13;5030838;28;20186;-73
2022/06/13 03:57:22;;;;;;;20.87;8.63;;;;;;;11.68;92.02;101873.59;5013449;28;20686;-73
2022/06/13 04:00:04;;;;;;;17.27;7.77;;;;;;;11.68;92.61;101873.59;5024958;28;20203;-73
2022/06/13 04:02:34;;;;;;;20.47;8.87;;;;;;;11.74;92.14;101855.81;5029728;28;20281;-73
2022/06/13 04:05:00;;;;;;;16.00;7.33;;;;;;;11.83;91.97;101856.09;5030555;28;20279;-73
2022/06/13 04:07:31;;;;;;;18.73;8.37;;;;;;;11.92;91.82;101863.19;5030965;28;20186;-73
2022/06/13 04:10:23;;;;;;;16.97;8.07;;;;;;;11.99;91.44;101860.84;5030097;28;20292;-73
2022/06/13 04:12:54;;;;;;;20.50;7.67;;;;;;;12.10;91.74;101861.16;5030447;28;20193;-73
2022/06/13 04:15:38;;;;;;;17.90;8.10;;;;;;;12.20;92.03;101858.91;5029497;28;20214;-73
2022/06/13 04:18:12;;;;;;;19.57;7.37;;;;;;;12.34;91.96;101856.72;5012930;28;20193;-73
2022/06/13 04:20:45;;;;;;;14.07;7.20;;;;;;;12.47;91.80;101849.44;5030294;28;20556;-73
2022/06/13 04:23:21;;;;;;;23.63;8.53;;;;;;;12.63;91.65;101845.59;4996079;28;20691;-73
2022/06/13 04:25:49;;;;;;;21.80;8.33;;;;;;;12.76;90.96;101848.50;5010774;28;20183;-73
2022/06/13 04:28:53;;;;;;;17.23;7.67;;;;;;;12.92;90.36;101842.06;5010357;28;20182;-73
2022/06/13 04:31:22;;;;;;;16.17;7.10;;;;;;;13.09;89.70;101843.41;4976841;28;20715;-73
2022/06/13 04:33:52;;;;;;;19.13;7.53;;;;;;;13.07;89.76;101839.91;5013041;28;20257;-73
2022/06/13 04:36:19;;;;;;;18.53;7.67;;;;;;;13.13;89.00;101852.06;5030802;28;20178;-73
2022/06/13 04:38:48;;;;;;;20.23;7.17;;;;;;;13.12;89.17;101861.47;5012327;28;20171;-73
2022/06/13 04:41:15;;;;;;;18.10;6.87;;;;;;;13.15;89.34;101853.84;5030729;28;20602;-72
2022/06/13 04:43:47;;;;;;;15.60;6.40;;;;;;;13.17;88.89;101859.03;5029856;28;20182;-73
2022/06/13 04:46:22;;;;;;;17.53;6.60;;;;;;;13.23;88.63;101852.34;5030286;28;20182;-73
2022/06/13 04:48:51;;;;;;;20.00;6.13;;;;;;;13.24;88.20;101851.50;5028878;28;20182;-73
2022/06/13 04:51:24;;;;;;;15.37;6.13;;;;;;;13.28;87.90;101857.59;5011977;28;20309;-73
2022/06/13 04:54:06;;;;;;;21.73;7.20;;;;;;;13.26;87.20;101847.25;5012663;28;20186;-73
2022/06/13 04:56:33;;;;;;;18.17;7.00;;;;;;;13.26;87.38;101851.56;5029726;28;20198;-73
2022/06/13 04:59:01;;;;;;;15.30;6.10;;;;;;;13.23;86.88;101849.78;5029876;28;20194;-73
2022/06/13 05:01:36;;;;;;;11.37;6.03;;;;;;;13.23;86.12;101856.59;5012033;28;20679;-73
2022/06/13 05:04:05;;;;;;;15.43;6.47;;;;;;;13.24;85.96;101854.09;5030135;28;20193;-73
2022/06/13 05:06:38;;;;;;;15.00;6.47;;;;;;;13.23;85.88;101862.63;5029442;28;20182;-73
2022/06/13 05:09:05;;;;;;;18.80;6.20;;;;;;;13.37;85.84;101850.09;5011123;28;20261;-73
2022/06/13 05:11:38;;;;;;;16.60;5.90;;;;;;;13.54;84.32;101854.81;5029078;28;20290;-74
2022/06/13 05:14:15;;;;;;;12.47;5.80;;;;;;;13.42;84.95;101853.66;4995101;28;20661;-74
2022/06/13 05:17:01;;;;;;;15.23;6.20;;;;;;;13.48;84.75;101846.94;4992265;28;20190;-74
2022/06/13 05:19:38;;;;;;;17.00;6.70;;;;;;;13.46;84.70;101840.91;5008806;28;20199;-73
2022/06/13 05:22:17;;;;;;;14.57;6.00;;;;;;;13.72;84.40;101844.09;5009986;28;20196;-74
2022/06/13 05:24:48;;;;;;;15.67;5.53;;;;;;;13.92;83.12;101846.28;4991320;28;20306;-73
2022/06/13 05:27:14;;;;;;;17.10;5.83;;;;;;;14.12;82.57;101852.72;5028769;28;20191;-73
2022/06/13 05:29:39;;;;;;;15.20;5.97;;;;;;;14.03;82.99;101849.06;5009833;28;20229;-73
2022/06/13 05:32:06;;;;;;;12.97;5.60;;;;;;;14.08;82.09;101844.91;5028783;28;20206;-73
2022/06/13 05:34:37;;;;;;;12.80;5.37;;;;;;;14.50;79.77;101841.50;5011114;28;20176;-73
2022/06/13 05:37:03;;;;;;;13.13;4.87;;;;;;;14.44;78.83;101838.81;5011503;28;20185;-72
2022/06/13 05:39:30;;;;;;;12.20;4.80;;;;;;;14.42;78.62;101837.91;5027437;28;20755;-73
2022/06/13 05:41:55;;;;;;;11.53;4.40;;;;;;;14.39;78.27;101847.28;5028794;28;20194;-73
2022/06/13 05:44:21;;;;;;;10.67;4.83;;;;;;;14.45;77.85;101844.84;5010625;28;20189;-73
2022/06/13 05:46:46;;;;;;;13.03;4.50;;;;;;;14.48;77.63;101845.75;5006055;28;20660;-73
2022/06/13 05:49:13;;;;;;;14.83;4.70;;;;;;;14.59;77.07;101845.97;5026775;28;20194;-73
2022/06/13 05:51:38;;;;;;;13.10;4.50;;;;;;;14.68;76.71;101841.84;5010026;28;20838;-73
2022/06/13 05:54:04;;;;;;;12.97;4.90;;;;;;;14.80;76.98;101838.63;5028393;28;20269;-72
2022/06/13 05:56:30;;;;;;;11.93;4.97;;;;;;;15.19;75.96;101844.50;5028163;28;20272;-73
2022/06/13 05:58:56;;;;;;;15.93;4.70;;;;;;;15.19;73.99;101839.34;5009589;28;20190;-73
2022/06/13 06:01:22;;;;;;;7.90;4.07;;;;;;;15.50;74.13;101831.25;5027883;28;20205;-72
2022/06/13 06:03:47;;;;;;;11.80;4.53;;;;;;;15.80;73.33;101834.28;5016654;28;20205;-72
2022/06/13 06:06:24;;;;;;;10.20;4.47;;;;;;;15.82;72.21;101837.75;5027832;28;20560;-72
2022/06/13 06:08:50;;;;;;;12.60;4.07;;;;;;;15.92;71.40;101835.31;5026853;28;20182;-72
2022/06/13 06:11:16;;;;;;;10.17;3.77;;;;;;;16.21;69.74;101826.22;5028290;28;20229;-72
2022/06/13 06:13:42;;;;;;;12.67;5.07;;;;;;;16.54;68.53;101830.97;5027560;28;20323;-72
2022/06/13 06:16:13;;;;;;;13.57;4.07;;;;;;;16.66;68.79;101831.97;5028401;28;20179;-73
2022/06/13 06:18:39;;;;;;;8.03;3.80;;;;;;;16.86;67.71;101834.75;5027714;28;20182;-73
2022/06/13 06:21:04;;;;;;;10.43;4.30;;;;;;;16.89;67.85;101825.28;5041235;28;20343;-73
2022/06/13 06:23:30;;;;;;;9.20;3.70;;;;;;;17.06;67.03;101833.22;5030224;28;20205;-73
2022/06/13 06:25:55;;;;;;;9.17;3.97;;;;;;;17.21;66.66;101848.88;5030987;28;20198;-73
2022/06/13 06:28:23;;;;;;;10.93;3.63;;;;;;;17.35;66.02;101840.38;5031047;28;20187;-74
2022/06/13 06:30:51;;;;;;;11.23;4.00;;;;;;;17.56;65.16;101835.41;4999750;28;20215;-72
2022/06/13 06:33:17;;;;;;;7.80;3.57;;;;;;;17.37;66.10;101845.56;5022877;28;20223;-73
2022/06/13 06:35:43;;;;;;;8.87;3.97;;;;;;;16.79;66.85;101841.59;4984875;28;20227;-73
2022/06/13 06:38:09;;;;;;;10.90;4.00;;;;;;;16.86;67.71;101840.78;4983663;28;20223;-74
2022/06/13 06:40:36;;;;;;;9.47;3.93;;;;;;;16.97;66.01;101834.00;4993869;28;20261;-73
2022/06/13 06:43:02;;;;;;;9.87;3.93;;;;;;;16.93;66.34;101828.78;5011436;28;20183;-73
2022/06/13 06:45:28;;;;;;;12.10;3.70;;;;;;;16.91;66.51;101840.84;5011894;28;20641;-73
2022/06/13 06:47:54;;;;;;;10.53;4.10;;;;;;;17.06;66.23;101834.09;4993519;28;20191;-73
2022/06/13 06:50:23;;;;;;;10.57;3.47;;;;;;;17.56;65.07;101838.00;5002346;28;20820;-73
2022/06/13 06:52:49;;;;;;;9.27;3.70;;;;;;;17.88;63.72;101833.88;5011778;28;20633;-73
2022/06/13 07:00:51;;;;;;;9.03;3.77;;;;;;;18.42;61.97;101826.34;5010706;28;20213;-73
2022/06/13 07:03:17;;;;;;;8.83;3.53;;;;;;;18.07;62.02;101832.22;5011391;28;20245;-73
2022/06/13 07:05:45;;;;;;;8.33;3.40;;;;;;;18.08;60.96;101831.38;5022320;28;20198;-73
2022/06/13 07:08:10;;;;;;;11.00;3.30;;;;;;;17.94;61.62;101838.19;5030489;28;20205;-74
2022/06/13 07:10:36;;;;;;;10.97;3.77;;;;;;;17.60;61.77;101828.50;5030587;28;20720;-74
2022/06/13 07:13:01;;;;;;;8.63;3.60;;;;;;;17.96;62.02;101834.75;5013475;28;20226;-73
2022/06/13 07:15:27;;;;;;;9.03;3.60;;;;;;;18.10;59.92;101821.88;5031280;28;20233;-74
2022/06/13 07:17:53;;;;;;;9.87;3.70;;;;;;;18.67;60.18;101825.56;5030765;28;20690;-73
2022/06/13 07:20:19;;;;;;;10.07;3.57;;;;;;;19.04;59.54;101829.06;5030105;28;20205;-73
2022/06/13 07:22:47;;;;;;;9.03;3.57;;;;;;;19.33;57.71;101822.19;5030451;28;20213;-74
2022/06/13 07:25:17;;;;;;;6.97;2.90;;;;;;;19.18;57.86;101816.97;5029520;28;20182;-73
2022/06/13 07:27:42;;;;;;;7.37;3.00;;;;;;;19.09;57.49;101828.22;5031190;28;20186;-73
2022/06/13 07:30:08;;;;;;;8.67;3.07;;;;;;;19.06;57.35;101822.13;5029482;28;20216;-73
2022/06/13 07:32:34;;;;;;;10.70;3.60;;;;;;;19.25;57.43;101822.19;5030937;28;20574;-73
2022/06/13 07:35:01;;;;;;;7.67;3.03;;;;;;;19.32;57.17;101828.25;5012539;28;20190;-73
2022/06/13 07:40:12;;;;;;;11.87;3.53;;;;;;;19.16;56.63;101831.69;5028356;28;20210;-74
2022/06/13 07:42:40;;;;;;;8.47;2.50;;;;;;;19.25;55.44;101832.56;5010912;28;20274;-73
2022/06/13 07:45:07;;;;;;;6.10;2.63;;;;;;;19.50;54.87;101818.72;5010528;28;20191;-75
2022/06/13 07:47:32;;;;;;;5.33;2.67;;;;;;;19.32;54.46;101823.06;5011055;28;20186;-74
2022/06/13 07:49:58;;;;;;;6.13;3.20;;;;;;;19.22;55.45;101823.88;4983442;28;20239;-74
2022/06/13 07:52:23;;;;;;;9.13;2.67;;;;;;;19.73;54.29;101814.34;5010396;28;20218;-73
2022/06/13 07:54:49;;;;;;;10.33;3.13;;;;;;;20.31;54.21;101822.84;5003345;28;20301;-74
2022/06/13 07:57:14;;;;;;;7.43;2.83;;;;;;;20.18;52.96;101824.59;5030161;28;20210;-74
2022/06/13 07:59:41;;;;;;;10.30;3.27;;;;;;;19.82;52.56;101816.91;5011672;28;20210;-75
2022/06/13 08:02:14;;;;;;;8.10;2.40;;;;;;;19.49;53.60;101819.56;5025599;28;20195;-74
2022/06/13 08:04:39;;;;;;;9.33;2.57;;;;;;;19.86;52.87;101826.41;5009118;28;20566;-74
2022/06/13 08:07:05;;;;;;;8.77;3.00;;;;;;;19.98;51.66;101820.31;5010380;28;20210;-74
2022/06/13 08:09:30;;;;;;;9.23;2.83;;;;;;;19.45;53.20;101820.47;5008668;28;20265;-74
2022/06/13 08:11:56;;;;;;;9.03;3.20;;;;;;;19.11;54.33;101828.22;4976756;28;20210;-74
2022/06/13 08:14:21;;;;;;;8.37;3.00;;;;;;;20.31;52.70;101825.44;5010220;28;20187;-74
2022/06/13 08:16:47;;;;;;;6.23;2.60;;;;;;;20.69;49.62;101810.47;5010589;28;20179;-74
2022/06/13 08:19:13;;;;;;;6.77;2.63;;;;;;;20.00;50.10;101810.78;5008988;28;20202;-73
2022/06/13 08:21:38;;;;;;;9.90;3.17;;;;;;;19.60;52.42;101816.94;5010017;28;20206;-74
2022/06/13 08:24:05;;;;;;;10.17;3.03;;;;;;;19.43;53.95;101813.53;5008704;28;20193;-74
2022/06/13 08:26:31;;;;;;;10.20;2.93;;;;;;;18.95;54.98;101811.78;5009907;28;20194;-75
2022/06/13 08:28:56;;;;;;;8.40;3.00;;;;;;;19.01;55.54;101829.06;5024534;28;20664;-74
2022/06/13 08:31:22;;;;;;;12.10;2.90;;;;;;;18.86;56.79;101826.47;5009652;28;20649;-75
2022/06/13 08:33:49;;;;;;;7.87;2.80;;;;;;;18.81;56.09;101835.97;5009900;28;20202;-74
2022/06/13 08:36:14;;;;;;;9.90;2.87;;;;;;;18.53;56.82;101847.16;5009973;28;20191;-74
2022/06/13 08:38:40;;;;;;;9.10;2.80;;;;;;;18.09;57.89;101866.78;4991297;28;20190;-74
2022/06/13 08:41:14;;;;;;;6.50;2.33;;;;;;;17.54;61.52;101903.59;5009519;28;20337;-74
2022/06/13 08:44:00;;;;;;;6.43;1.97;;;;;;;16.18;69.94;101919.25;5010076;28;20705;-74
2022/06/13 08:46:48;;;;;;;7.00;1.80;;;;;;;15.50;75.37;101932.81;5009936;28;20187;-74
2022/06/13 08:49:29;;;;;;;5.03;1.90;;;;;;;15.12;77.10;101920.03;4999214;28;20246;-73
2022/06/13 08:52:21;;;;;;;4.60;1.33;;;;;;;14.77;77.80;101931.38;5010578;28;20238;-74
2022/06/13 08:55:02;;;;;;;4.07;1.90;;;;;;;14.89;78.55;101922.22;5007912;28;20551;-73
2022/06/13 08:57:32;;;;;;;3.87;1.33;;;;;;;14.89;78.37;101913.59;5030003;28;20171;-74
2022/06/13 09:00:12;;;;;;;6.43;1.67;;;;;;;14.94;79.04;101917.13;5010582;28;20203;-74
2022/06/13 09:02:44;;;;;;;4.20;1.77;;;;;;;15.54;77.00;101911.38;5029653;28;20579;-74
2022/06/13 09:05:33;;;;;;;3.53;1.90;;;;;;;15.66;77.58;101913.28;5011952;28;20198;-75
2022/06/13 09:08:07;;;;;;;3.33;1.83;;;;;;;15.56;77.06;101906.25;4995483;28;20316;-75
2022/06/13 09:10:47;;;;;;;3.20;1.80;;;;;;;15.56;77.36;101901.06;5028955;28;20343;-75
2022/06/13 09:13:23;;;;;;;4.43;2.20;;;;;;;15.65;78.63;101901.22;5029174;28;20252;-75
2022/06/13 09:15:55;;;;;;;5.13;1.90;;;;;;;15.85;76.06;101895.53;5029595;28;20178;-75
2022/06/13 09:18:37;;;;;;;4.03;1.80;;;;;;;16.42;76.55;101895.47;5028490;28;20231;-74
2022/06/13 09:21:22;;;;;;;3.73;1.63;;;;;;;17.65;74.03;101895.06;5028910;28;20590;-75
2022/06/13 09:24:12;;;;;;;4.30;1.73;;;;;;;18.10;71.41;101897.91;5011566;28;20510;-74
2022/06/13 09:26:45;;;;;;;5.77;2.13;;;;;;;18.44;73.68;101901.59;5017301;28;20225;-74
2022/06/13 09:29:28;;;;;;;4.27;1.73;;;;;;;18.72;69.10;101895.63;5008258;28;20210;-74
2022/06/13 09:31:59;;;;;;;3.20;1.70;;;;;;;18.57;66.30;101895.59;5009267;28;20261;-73
2022/06/13 09:34:40;;;;;;;6.33;2.30;;;;;;;18.79;67.53;101898.25;5007864;28;20179;-73
2022/06/13 09:37:09;;;;;;;3.37;1.93;;;;;;;19.14;67.99;101903.53;5008540;28;20201;-74
2022/06/13 09:39:34;;;;;;;4.17;2.00;;;;;;;19.20;64.92;101896.59;5008326;28;20199;-73
2022/06/13 09:42:15;;;;;;;4.80;2.17;;;;;;;19.24;64.74;101888.00;5009175;28;20187;-73
2022/06/13 09:44:49;;;;;;;4.20;2.07;;;;;;;19.37;64.20;101891.47;5009437;28;20667;-74
2022/06/13 09:47:15;;;;;;;4.90;2.20;;;;;;;19.56;64.87;101888.88;5008893;28;20246;-73
2022/06/13 09:49:53;;;;;;;3.20;1.57;;;;;;;19.69;60.59;101888.00;4999959;28;20822;-73
2022/06/13 09:52:39;;;;;;;3.13;1.47;;;;;;;19.26;60.38;101888.00;4991123;28;20221;-72
2022/06/13 09:55:34;;;;;;;4.77;1.57;;;;;;;20.04;58.16;101890.53;5008965;28;20187;-73
2022/06/13 09:58:05;;;;;;;3.50;1.67;;;;;;;19.89;58.27;101883.63;5008795;28;20190;-74
2022/06/13 10:00:36;;;;;;;2.90;1.63;;;;;;;19.75;58.06;101889.69;5015788;28;20230;-73
2022/06/13 10:03:15;;;;;;;1.07;0.77;;;;;;;19.79;58.36;101892.31;5014357;28;20201;-76
2022/06/13 10:06:12;;;;;;;2.63;1.20;;;;;;;19.57;57.74;101895.78;5032660;28;20186;-76
2022/06/13 10:09:09;;;;;;;4.17;1.33;;;;;;;20.10;56.88;101895.75;4990443;28;20287;-73
2022/06/13 10:11:42;;;;;;;2.37;1.23;;;;;;;20.21;57.66;101887.03;5011846;28;20215;-76
2022/06/13 10:14:30;;;;;;;5.30;2.10;;;;;;;20.47;56.07;101889.56;5011919;28;20286;-74
2022/06/13 10:17:30;;;;;;;4.33;1.57;;;;;;;20.10;57.20;101893.16;5013887;28;20767;-74
2022/06/13 10:20:08;;;;;;;3.00;1.47;;;;;;;19.86;54.12;101890.56;5030729;28;20206;-73
2022/06/13 10:22:55;;;;;;;3.97;1.43;;;;;;;20.36;56.29;101886.97;5032195;28;20260;-73
2022/06/13 10:25:29;;;;;;;4.00;1.40;;;;;;;20.47;56.42;101882.63;5032272;28;20205;-73
2022/06/13 10:27:57;;;;;;;3.97;1.17;;;;;;;20.87;53.22;101878.06;5031731;28;21000;-73
2022/06/13 10:30:41;;;;;;;2.07;1.00;;;;;;;21.06;52.56;101877.97;5030851;28;20242;-73
2022/06/13 10:33:23;;;;;;;2.47;1.03;;;;;;;21.43;52.37;101875.97;5013522;28;20202;-73
2022/06/13 10:36:01;;;;;;;3.07;1.20;;;;;;;21.78;50.72;101873.91;5031886;28;20239;-73
2022/06/13 10:38:45;;;;;;;1.67;0.90;;;;;;;21.94;50.83;101872.88;5030738;28;20266;-73
2022/06/13 10:41:11;;;;;;;2.73;0.77;;;;;;;21.79;47.57;101875.66;5040561;28;20791;-75
2022/06/13 10:43:37;;;;;;;2.67;1.20;;;;;;;21.42;47.40;101879.44;5051412;28;20273;-74
2022/06/13 10:46:08;;;;;;;1.10;0.70;;;;;;;21.98;47.06;101871.97;5050406;28;20726;-74
2022/06/13 10:48:52;;;;;;;2.73;0.80;;;;;;;22.04;47.16;101866.69;5030663;28;20228;-74
2022/06/13 10:51:18;;;;;;;1.43;0.70;;;;;;;21.83;47.41;101866.94;5031704;28;20250;-74
2022/06/13 10:54:10;;;;;;;2.73;0.97;;;;;;;21.84;47.06;101879.09;5033166;28;20238;-73
2022/06/13 10:56:43;;;;;;;1.93;1.03;;;;;;;21.64;48.03;101875.75;5030508;28;20287;-73
2022/06/13 10:59:24;;;;;;;1.07;0.77;;;;;;;21.82;47.65;101878.22;5037211;28;20178;-72
2022/06/13 11:02:24;;;;;;;1.60;0.70;;;;;;;22.18;44.97;101870.88;5034242;28;20705;-73
2022/06/13 11:05:05;;;;;;;1.10;0.63;;;;;;;21.50;47.21;101873.28;5025035;28;20292;-73
2022/06/13 11:07:33;;;;;;;1.87;0.80;;;;;;;20.90;47.24;101872.84;5013801;28;20723;-72
2022/06/13 11:10:01;;;;;;;1.57;0.77;;;;;;;20.09;49.02;101892.28;5013907;28;20281;-72
2022/06/13 11:12:36;;;;;;;2.37;0.80;;;;;;;19.45;50.47;101900.13;5032797;28;20199;-75
2022/06/13 11:23:54;;;;;;;3.43;0.90;;;;;;;18.28;64.59;101908.41;5031576;28;20178;-73
2022/06/13 11:29:16;;;;;;;1.50;0.80;;;;;;;19.90;58.87;101892.31;4967543;28;20241;-73
2022/06/13 11:31:58;;;;;;;0.93;0.60;;;;;;;20.18;57.05;101887.03;5013531;28;20229;-72
2022/06/13 11:34:24;;;;;;;0.63;0.50;;;;;;;20.20;55.42;101900.06;5031220;28;20243;-72
2022/06/13 11:37:25;;;;;;;1.87;0.80;;;;;;;20.54;53.47;101888.66;5031431;28;20606;-72
2022/06/13 11:39:53;;;;;;;1.40;0.80;;;;;;;20.73;55.99;101880.75;4968229;28;20216;-73
2022/06/13 11:42:24;;;;;;;1.77;0.80;;;;;;;20.95;53.31;101879.78;5001930;28;20233;-73
2022/06/13 11:44:57;;;;;;;1.87;0.80;;;;;;;21.04;53.69;101874.50;5013312;28;20672;-73
2022/06/13 11:47:23;;;;;;;2.40;0.87;;;;;;;21.05;53.47;101870.19;5012683;28;20187;-73
2022/06/13 11:49:55;;;;;;;2.60;0.70;;;;;;;20.54;52.88;101870.44;5030647;28;20221;-73
2022/06/13 11:55:36;;;;;;;2.93;0.97;;;;;;;19.59;55.47;101888.00;5029920;28;20206;-73
2022/06/13 11:58:03;;;;;;;3.07;1.00;;;;;;;19.12;54.85;101900.06;4996396;28;20581;-73
2022/06/13 12:00:37;;;;;;;1.30;0.70;;;;;;;18.79;54.49;101911.22;5028991;28;20206;-73
2022/06/13 12:03:13;;;;;;;2.40;0.87;;;;;;;18.57;56.19;101927.56;5030352;28;20178;-72
2022/06/13 12:05:39;;;;;;;2.23;0.70;;;;;;;18.32;57.29;101930.91;5010176;28;20281;-73
2022/06/13 12:08:21;;;;;;;2.13;0.80;;;;;;;18.11;57.25;101935.97;5030383;28;20191;-72
2022/06/13 12:11:01;;;;;;;1.33;0.70;;;;;;;17.88;61.61;101950.50;5011580;28;20214;-73
2022/06/13 12:13:33;;;;;;;1.13;0.67;;;;;;;17.89;62.38;101944.47;5028859;28;20213;-72